createdAt,value
2022-10-05T00:00:20.852Z,101115.58
2022-10-05T00:03:12.074Z,101109.98
2022-10-05T00:05:40.238Z,101107.10
2022-10-05T00:08:15.651Z,101115.13
2022-10-05T00:10:45.391Z,101117.88
2022-10-05T00:13:17.668Z,101118.59
2022-10-05T00:15:45.752Z,101114.50
2022-10-05T00:18:19.358Z,101111.29
2022-10-05T00:20:48.744Z,101108.44
2022-10-05T00:23:25.712Z,101105.57
2022-10-05T00:25:53.395Z,101096.94
2022-10-05T00:28:27.337Z,101092.01
2022-10-05T00:30:58.836Z,101083.16
2022-10-05T00:33:28.032Z,101079.06
2022-10-05T00:35:55.892Z,101081.78
2022-10-05T00:38:23.564Z,101083.48
2022-10-05T00:40:59.922Z,101091.66
2022-10-05T00:43:35.163Z,101097.91
2022-10-05T00:46:07.848Z,101102.48
2022-10-05T00:49:03.465Z,101111.64
2022-10-05T00:51:37.156Z,101102.93
2022-10-05T00:54:38.815Z,101100.22
2022-10-05T00:57:18.370Z,101100.42
2022-10-05T00:59:54.132Z,101106.23
2022-10-05T01:02:46.852Z,101103.14
2022-10-05T01:05:23.811Z,101098.58
2022-10-05T01:08:06.753Z,101098.77
2022-10-05T01:10:43.960Z,101098.63
2022-10-05T01:13:57.776Z,101098.98
2022-10-05T01:16:41.680Z,101101.55
2022-10-05T01:19:43.527Z,101103.46
2022-10-05T01:22:52.074Z,101098.20
2022-10-05T01:25:48.264Z,101103.95
2022-10-05T01:28:26.398Z,101109.09
2022-10-05T01:30:58.392Z,101106.17
2022-10-05T01:33:34.092Z,101098.37
2022-10-05T01:36:20.164Z,101096.17
2022-10-05T01:38:50.295Z,101094.70
2022-10-05T01:41:25.588Z,101086.83
2022-10-05T01:44:03.419Z,101083.84
2022-10-05T01:46:41.978Z,101090.48
2022-10-05T01:49:34.276Z,101098.45
2022-10-05T01:52:38.581Z,101104.75
2022-10-05T01:55:18.399Z,101105.11
2022-10-05T01:58:09.141Z,101108.33
2022-10-05T02:01:00.487Z,101112.10
2022-10-05T02:03:35.742Z,101115.69
2022-10-05T02:06:13.290Z,101108.01
2022-10-05T02:08:47.786Z,101103.91
2022-10-05T02:11:15.763Z,101102.02
2022-10-05T02:13:57.353Z,101100.98
2022-10-05T02:16:36.960Z,101089.05
2022-10-05T02:19:17.220Z,101082.05
2022-10-05T02:21:49.206Z,101071.31
2022-10-05T02:24:29.774Z,101059.22
2022-10-05T02:26:59.062Z,101053.60
2022-10-05T02:29:31.138Z,101052.88
2022-10-05T02:32:11.289Z,101051.84
2022-10-05T02:34:43.476Z,101047.90
2022-10-05T02:37:29.225Z,101050.73
2022-10-05T02:40:06.348Z,101059.88
2022-10-05T02:43:06.414Z,101060.02
2022-10-05T02:45:42.812Z,101054.15
2022-10-05T02:48:43.063Z,101061.61
2022-10-05T02:51:22.505Z,101081.08
2022-10-05T02:54:15.721Z,101077.14
2022-10-05T02:57:16.854Z,101062.41
2022-10-05T02:59:53.142Z,101072.06
2022-10-05T03:02:33.639Z,101082.39
2022-10-05T03:05:16.542Z,101081.19
2022-10-05T03:07:59.238Z,101078.98
2022-10-05T03:10:29.213Z,101084.42
2022-10-05T03:13:08.421Z,101082.06
2022-10-05T03:15:38.858Z,101080.73
2022-10-05T03:18:34.511Z,101082.75
2022-10-05T03:21:18.051Z,101079.87
2022-10-05T03:24:03.926Z,101083.10
2022-10-05T03:26:59.296Z,101085.98
2022-10-05T03:29:52.022Z,101090.38
2022-10-05T03:32:40.330Z,101091.94
2022-10-05T03:35:28.266Z,101090.92
2022-10-05T03:38:07.941Z,101089.57
2022-10-05T03:40:47.382Z,101086.19
2022-10-05T03:43:27.005Z,101078.53
2022-10-05T03:46:19.244Z,101069.33
2022-10-05T03:49:02.770Z,101065.40
2022-10-05T03:51:41.089Z,101062.84
2022-10-05T03:54:25.373Z,101053.63
2022-10-05T03:57:02.093Z,101054.80
2022-10-05T03:59:35.690Z,101056.65
2022-10-05T04:02:21.529Z,101053.27
2022-10-05T04:04:57.239Z,101047.33
2022-10-05T04:07:47.007Z,101042.76
2022-10-05T04:10:27.978Z,101041.41
2022-10-05T04:13:05.268Z,101040.23
2022-10-05T04:15:46.107Z,101047.69
2022-10-05T04:18:26.405Z,101053.48
2022-10-05T04:21:00.111Z,101048.90
2022-10-05T04:23:44.586Z,101048.90
2022-10-05T04:26:34.782Z,101055.52
2022-10-05T04:29:16.487Z,101057.86
2022-10-05T04:31:46.901Z,101064.52
2022-10-05T04:34:23.738Z,101072.66
2022-10-05T04:37:03.094Z,101078.55
2022-10-05T04:39:50.693Z,101079.05
2022-10-05T04:42:37.707Z,101071.20
2022-10-05T04:45:14.055Z,101071.30
2022-10-05T04:48:00.485Z,101073.66
2022-10-05T04:51:13.390Z,101063.63
2022-10-05T04:53:59.179Z,101064.61
2022-10-05T04:56:45.831Z,101063.06
2022-10-05T04:59:34.645Z,101070.67
2022-10-05T05:02:25.558Z,101083.41
2022-10-05T05:05:16.449Z,101088.13
2022-10-05T05:07:46.902Z,101086.45
2022-10-05T05:11:02.591Z,101092.07
2022-10-05T05:14:06.782Z,101092.73
2022-10-05T05:16:41.418Z,101091.23
2022-10-05T05:19:23.778Z,101094.16
2022-10-05T05:22:23.762Z,101093.75
2022-10-05T05:25:06.682Z,101092.27
2022-10-05T05:27:38.517Z,101080.27
2022-10-05T05:30:24.089Z,101080.88
2022-10-05T05:33:07.502Z,101083.02
2022-10-05T05:35:43.898Z,101080.88
2022-10-05T05:38:17.291Z,101073.66
2022-10-05T05:40:57.543Z,101080.18
2022-10-05T05:43:30.840Z,101080.09
2022-10-05T05:46:03.410Z,101069.10
2022-10-05T05:48:38.643Z,101068.98
2022-10-05T05:51:21.594Z,101070.77
2022-10-05T05:53:53.842Z,101082.23
2022-10-05T05:56:30.566Z,101089.60
2022-10-05T05:59:06.506Z,101084.90
2022-10-05T06:01:44.524Z,101081.05
2022-10-05T06:04:38.642Z,101082.65
2022-10-05T06:07:07.353Z,101084.91
2022-10-05T06:09:52.090Z,101080.41
2022-10-05T06:12:25.758Z,101077.27
2022-10-05T06:15:02.055Z,101082.45
2022-10-05T06:17:57.303Z,101077.95
2022-10-05T06:20:33.337Z,101071.56
2022-10-05T06:23:04.906Z,101071.48
2022-10-05T06:25:50.373Z,101065.60
2022-10-05T06:28:19.812Z,101072.31
2022-10-05T06:31:09.011Z,101069.66
2022-10-05T06:33:49.156Z,101058.04
2022-10-05T06:36:28.030Z,101056.60
2022-10-05T06:38:59.231Z,101069.32
2022-10-05T06:41:39.614Z,101069.75
2022-10-05T06:44:13.183Z,101071.22
2022-10-05T06:46:52.530Z,101080.00
2022-10-05T06:50:02.286Z,101077.38
2022-10-05T06:52:51.867Z,101080.86
2022-10-05T06:55:49.411Z,101091.88
2022-10-05T06:58:20.975Z,101097.59
2022-10-05T07:00:58.514Z,101095.96
2022-10-05T07:03:47.926Z,101094.89
2022-10-05T07:06:32.982Z,101092.92
2022-10-05T07:09:48.528Z,101083.44
2022-10-05T07:12:34.979Z,101082.14
2022-10-05T07:15:26.398Z,101082.38
2022-10-05T07:18:03.259Z,101084.15
2022-10-05T07:20:52.577Z,101075.51
2022-10-05T07:23:41.660Z,101073.17
2022-10-05T07:26:38.403Z,101078.71
2022-10-05T07:29:27.879Z,101076.38
2022-10-05T07:32:09.216Z,101075.27
2022-10-05T07:34:55.516Z,101073.80
2022-10-05T07:37:57.895Z,101078.13
2022-10-05T07:40:28.535Z,101070.68
2022-10-05T07:43:40.246Z,101065.60
2022-10-05T07:46:40.729Z,101067.38
2022-10-05T07:49:26.739Z,101062.98
2022-10-05T07:52:23.836Z,101057.40
2022-10-05T07:55:26.758Z,101059.48
2022-10-05T07:57:57.448Z,101060.55
2022-10-05T08:00:43.282Z,101054.80
2022-10-05T08:03:14.927Z,101048.35
2022-10-05T08:05:47.013Z,101048.70
2022-10-05T08:08:38.148Z,101045.64
2022-10-05T08:11:19.289Z,101046.02
2022-10-05T08:14:02.721Z,101042.94
2022-10-05T08:16:35.328Z,101033.73
2022-10-05T08:19:08.702Z,101033.05
2022-10-05T08:21:41.508Z,101031.18
2022-10-05T08:24:27.691Z,101029.30
2022-10-05T08:27:02.188Z,101023.31
2022-10-05T08:29:47.458Z,101022.63
2022-10-05T08:32:21.131Z,101025.54
2022-10-05T08:35:03.051Z,101027.59
2022-10-05T08:37:37.372Z,101029.11
2022-10-05T08:40:31.976Z,101028.60
2022-10-05T08:43:14.503Z,101028.42
2022-10-05T08:45:51.150Z,101029.77
2022-10-05T08:48:47.482Z,101035.94
2022-10-05T08:51:27.182Z,101032.16
2022-10-05T08:54:19.156Z,101031.82
2022-10-05T08:57:24.447Z,101029.40
2022-10-05T09:00:18.822Z,101028.39
2022-10-05T09:03:14.375Z,101030.10
2022-10-05T09:06:00.623Z,101035.90
2022-10-05T09:08:48.834Z,101031.08
2022-10-05T09:11:33.263Z,101032.08
2022-10-05T09:14:38.017Z,101026.55
2022-10-05T09:17:17.619Z,101016.75
2022-10-05T09:20:10.011Z,101015.50
2022-10-05T09:22:54.870Z,101005.86
2022-10-05T09:25:43.925Z,100998.25
2022-10-05T09:28:24.521Z,100997.00
2022-10-05T09:31:07.380Z,100996.08
2022-10-05T09:34:17.664Z,100985.91
2022-10-05T09:37:07.240Z,100982.64
2022-10-05T09:39:37.972Z,100986.70
2022-10-05T09:42:29.801Z,100989.41
2022-10-05T09:45:21.041Z,100989.73
2022-10-05T09:48:01.168Z,100995.20
2022-10-05T09:50:37.970Z,100994.16
2022-10-05T09:53:14.474Z,100997.20
2022-10-05T09:55:47.848Z,100999.93
2022-10-05T09:58:29.506Z,101000.94
2022-10-05T10:01:29.236Z,101003.82
2022-10-05T10:04:02.403Z,101012.86
2022-10-05T10:07:05.185Z,101018.31
2022-10-05T10:09:51.102Z,101020.14
2022-10-05T10:12:52.648Z,101019.23
2022-10-05T10:15:54.769Z,101019.52
2022-10-05T10:18:46.013Z,101012.44
2022-10-05T10:21:35.936Z,101021.46
2022-10-05T10:24:33.778Z,101024.59
2022-10-05T10:27:34.391Z,101019.50
2022-10-05T10:30:10.981Z,101017.59
2022-10-05T10:32:53.272Z,101020.04
2022-10-05T10:35:35.906Z,101019.40
2022-10-05T10:38:20.032Z,101011.59
2022-10-05T10:41:08.579Z,101001.42
2022-10-05T10:43:40.127Z,100997.75
2022-10-05T10:46:34.049Z,100991.13
2022-10-05T10:49:20.284Z,100974.90
2022-10-05T10:52:25.028Z,100966.46
2022-10-05T10:55:29.885Z,100957.66
2022-10-05T10:58:18.955Z,100957.02
2022-10-05T11:01:27.343Z,100963.30
2022-10-05T11:04:04.261Z,100967.85
2022-10-05T11:06:34.888Z,100963.36
2022-10-05T11:09:47.668Z,100962.44
2022-10-05T11:12:18.072Z,100959.18
2022-10-05T11:15:13.793Z,100952.75
2022-10-05T11:17:56.725Z,100961.13
2022-10-05T11:21:02.716Z,100962.34
2022-10-05T11:23:43.838Z,100968.24
2022-10-05T11:26:41.327Z,100967.34
2022-10-05T11:29:35.000Z,100960.24
2022-10-05T11:32:21.602Z,100959.30
2022-10-05T11:35:31.158Z,100954.39
2022-10-05T11:38:33.922Z,100950.67
2022-10-05T11:41:31.484Z,100947.80
2022-10-05T11:44:06.155Z,100951.80
2022-10-05T11:46:47.549Z,100953.23
2022-10-05T11:49:25.006Z,100954.48
2022-10-05T11:52:23.016Z,100957.44
2022-10-05T11:55:12.062Z,100954.16
2022-10-05T11:58:01.853Z,100951.24
2022-10-05T12:00:42.254Z,100947.32
2022-10-05T12:03:15.714Z,100943.92
2022-10-05T12:06:09.549Z,100948.09
2022-10-05T12:09:18.676Z,100947.29
2022-10-05T12:12:15.818Z,100944.93
2022-10-05T12:15:01.422Z,100948.50
2022-10-05T12:18:01.330Z,100950.66
2022-10-05T12:20:46.810Z,100950.20
2022-10-05T12:23:33.629Z,100945.28
2022-10-05T12:26:11.303Z,100941.64
2022-10-05T12:28:47.910Z,100936.02
2022-10-05T12:31:24.882Z,100933.77
2022-10-05T12:34:40.982Z,100936.66
2022-10-05T12:37:33.580Z,100937.38
2022-10-05T12:40:29.208Z,100940.27
2022-10-05T12:43:03.544Z,100943.98
2022-10-05T12:46:02.833Z,100946.56
2022-10-05T12:48:44.406Z,100947.18
2022-10-05T12:51:19.543Z,100936.72
2022-10-05T12:54:03.177Z,100930.71
2022-10-05T12:56:42.725Z,100928.30
2022-10-05T12:59:29.113Z,100925.21
2022-10-05T13:02:31.103Z,100933.48
2022-10-05T13:05:25.352Z,100928.86
2022-10-05T13:07:58.933Z,100928.13
2022-10-05T13:11:15.203Z,100931.04
2022-10-05T13:14:02.525Z,100926.34
2022-10-05T13:16:42.680Z,100924.59
2022-10-05T13:19:39.545Z,100926.11
2022-10-05T13:22:16.074Z,100925.52
2022-10-05T13:25:23.295Z,100928.30
2022-10-05T13:28:09.803Z,100920.61
2022-10-05T13:30:42.000Z,100916.23
2022-10-05T13:33:18.176Z,100912.05
2022-10-05T13:36:01.607Z,100910.77
2022-10-05T13:38:49.484Z,100916.49
2022-10-05T13:41:48.851Z,100918.75
2022-10-05T13:44:41.284Z,100924.20
2022-10-05T13:47:22.563Z,100925.27
2022-10-05T13:49:56.881Z,100934.44
2022-10-05T13:52:33.668Z,100935.66
2022-10-05T13:55:14.037Z,100932.77
2022-10-05T13:57:51.811Z,100931.56
2022-10-05T14:00:27.005Z,100931.94
2022-10-05T14:02:57.935Z,100923.88
2022-10-05T14:05:28.114Z,100917.19
2022-10-05T14:08:02.522Z,100908.77
2022-10-05T14:10:31.540Z,100911.52
2022-10-05T14:13:01.223Z,100911.70
2022-10-05T14:15:30.632Z,100908.14
2022-10-05T14:17:59.017Z,100906.62
2022-10-05T14:20:34.389Z,100910.44
2022-10-05T14:23:03.336Z,100902.39
2022-10-05T14:25:32.089Z,100894.10
2022-10-05T14:28:02.044Z,100889.28
2022-10-05T14:30:33.795Z,100886.55
2022-10-05T14:33:04.408Z,100888.48
2022-10-05T14:35:56.584Z,100886.45
2022-10-05T14:38:50.562Z,100889.56
2022-10-05T14:41:19.527Z,100890.83
2022-10-05T14:44:25.001Z,100894.80
2022-10-05T14:46:55.990Z,100884.17
2022-10-05T14:49:24.394Z,100883.05
2022-10-05T14:51:54.546Z,100879.49
2022-10-05T14:54:41.383Z,100879.86
2022-10-05T14:57:48.404Z,100881.61
2022-10-05T15:00:18.741Z,100883.20
2022-10-05T15:03:04.626Z,100878.45
2022-10-05T15:05:53.632Z,100880.18
2022-10-05T15:08:47.246Z,100876.14
2022-10-05T15:11:30.596Z,100874.83
2022-10-05T15:14:00.030Z,100871.27
2022-10-05T15:16:33.244Z,100866.70
2022-10-05T15:19:20.917Z,100868.64
2022-10-05T15:21:55.118Z,100863.70
2022-10-05T15:24:26.739Z,100858.77
2022-10-05T15:27:00.899Z,100865.49
2022-10-05T15:29:59.679Z,100866.89
2022-10-05T15:33:00.406Z,100866.95
2022-10-05T15:35:41.947Z,100864.27
2022-10-05T15:38:21.470Z,100858.30
2022-10-05T15:40:59.160Z,100854.92
2022-10-05T15:43:41.733Z,100848.64
2022-10-05T15:46:18.006Z,100843.04
2022-10-05T15:49:20.194Z,100846.55
2022-10-05T15:52:18.794Z,100846.80
2022-10-05T15:55:04.538Z,100848.03
2022-10-05T15:57:45.619Z,100850.45
2022-10-05T16:00:17.712Z,100863.95
2022-10-05T16:02:54.827Z,100867.92
2022-10-05T16:06:02.391Z,100871.70
2022-10-05T16:08:49.215Z,100866.09
2022-10-05T16:11:42.670Z,100853.94
2022-10-05T16:14:18.306Z,100846.92
2022-10-05T16:17:00.251Z,100844.53
2022-10-05T16:19:43.713Z,100845.91
2022-10-05T16:22:24.067Z,100846.10
2022-10-05T16:25:03.427Z,100840.63
2022-10-05T16:28:05.255Z,100831.22
2022-10-05T16:31:11.245Z,100830.77
2022-10-05T16:33:52.917Z,100829.77
2022-10-05T16:36:40.465Z,100828.92
2022-10-05T16:39:35.115Z,100826.88
2022-10-05T16:42:11.971Z,100828.43
2022-10-05T16:44:59.866Z,100824.67
2022-10-05T16:47:49.621Z,100823.83
2022-10-05T16:50:37.970Z,100818.85
2022-10-05T16:53:24.160Z,100817.68
2022-10-05T16:56:01.935Z,100824.05
2022-10-05T16:58:41.623Z,100822.02
2022-10-05T17:01:42.522Z,100827.52
2022-10-05T17:04:37.055Z,100826.48
2022-10-05T17:07:25.046Z,100831.66
2022-10-05T17:10:13.201Z,100828.42
2022-10-05T17:13:08.024Z,100820.41
2022-10-05T17:16:06.631Z,100821.08
2022-10-05T17:18:55.731Z,100822.12
2022-10-05T17:21:45.741Z,100819.89
2022-10-05T17:24:19.633Z,100819.05
2022-10-05T17:26:56.311Z,100821.63
2022-10-05T17:29:42.737Z,100821.98
2022-10-05T17:32:12.272Z,100824.90
2022-10-05T17:35:02.438Z,100824.20
2022-10-05T17:37:31.952Z,100820.08
2022-10-05T17:39:59.606Z,100815.44
2022-10-05T17:42:29.935Z,100812.55
2022-10-05T17:45:20.404Z,100813.41
2022-10-05T17:48:10.179Z,100808.63
2022-10-05T17:51:01.077Z,100806.23
2022-10-05T17:54:02.560Z,100808.67
2022-10-05T17:56:33.897Z,100804.55
2022-10-05T17:59:04.855Z,100802.50
2022-10-05T18:01:33.910Z,100795.16
2022-10-05T18:04:25.448Z,100799.80
2022-10-05T18:07:05.906Z,100799.13
2022-10-05T18:09:38.400Z,100798.11
2022-10-05T18:12:10.011Z,100796.73
2022-10-05T18:14:58.103Z,100792.27
2022-10-05T18:18:34.514Z,100792.63
2022-10-05T18:21:15.084Z,100791.95
2022-10-05T18:23:52.982Z,100794.17
2022-10-05T18:26:30.285Z,100798.79
2022-10-05T18:30:06.667Z,100796.59
2022-10-05T18:32:45.392Z,100794.04
2022-10-05T18:35:18.832Z,100791.30
2022-10-05T18:37:55.211Z,100786.70
2022-10-05T18:40:54.179Z,100789.64
2022-10-05T18:43:47.712Z,100789.16
2022-10-05T19:00:11.330Z,100788.39
2022-10-05T19:03:51.987Z,100786.02
2022-10-05T19:07:29.369Z,100783.64
2022-10-05T19:10:58.125Z,100784.83
2022-10-05T19:14:37.604Z,100780.73
2022-10-05T19:17:45.217Z,100787.27
2022-10-05T19:21:22.798Z,100787.44
2022-10-05T19:24:49.965Z,100781.98
2022-10-05T19:28:27.496Z,100780.64
2022-10-05T19:32:08.440Z,100780.65
2022-10-05T19:35:46.654Z,100779.98
2022-10-05T19:39:19.609Z,100778.80
2022-10-05T19:42:51.477Z,100784.31
2022-10-05T19:46:25.569Z,100780.38
2022-10-05T19:49:55.504Z,100779.52
2022-10-05T19:53:32.354Z,100783.48
2022-10-05T19:57:22.289Z,100782.79
2022-10-05T20:00:51.125Z,100784.16
2022-10-05T20:04:22.466Z,100786.77
2022-10-05T20:07:53.575Z,100786.77
2022-10-05T20:11:25.099Z,100788.85
2022-10-05T20:14:58.495Z,100792.44
2022-10-05T20:18:26.670Z,100796.90
2022-10-05T20:21:35.702Z,100795.55
2022-10-05T20:25:13.495Z,100801.58
2022-10-05T20:28:45.783Z,100802.95
2022-10-05T20:32:13.442Z,100805.85
2022-10-05T20:35:42.385Z,100814.59
2022-10-05T20:39:15.556Z,100816.65
2022-10-05T20:57:03.885Z,100816.68
2022-10-05T21:00:34.103Z,100823.05
2022-10-05T21:04:02.914Z,100823.08
2022-10-05T21:07:31.471Z,100828.73
2022-10-05T21:11:00.186Z,100832.34
2022-10-05T21:14:29.129Z,100833.89
2022-10-05T21:17:57.851Z,100839.55
2022-10-05T21:38:38.147Z,100848.85
2022-10-05T21:42:11.512Z,100850.23
2022-10-05T21:45:40.225Z,100855.89
2022-10-05T21:49:09.090Z,100855.54
2022-10-05T21:52:36.672Z,100858.13
2022-10-05T21:56:05.804Z,100856.77
2022-10-05T21:59:34.453Z,100860.86
2022-10-05T22:03:10.658Z,100858.66
2022-10-05T22:06:39.346Z,100859.51
2022-10-05T22:10:08.043Z,100858.31
2022-10-05T22:13:39.810Z,100858.31
2022-10-05T22:17:08.473Z,100855.59
2022-10-05T22:20:37.479Z,100856.42
2022-10-05T22:24:05.270Z,100855.71
2022-10-05T22:27:35.183Z,100858.11
2022-10-05T22:31:05.101Z,100856.21
2022-10-05T22:34:35.396Z,100856.71
2022-10-05T23:22:49.048Z,100874.20
